createdAt,value
2017-05-28T00:00:01.249Z,0
2017-05-28T00:01:01.220Z,0
2017-05-28T00:02:01.246Z,0
2017-05-28T00:03:01.260Z,0
2017-05-28T00:04:01.222Z,0
2017-05-28T00:05:01.246Z,0
2017-05-28T00:06:01.219Z,0
2017-05-28T00:07:01.267Z,0
2017-05-28T00:08:01.260Z,0
2017-05-28T00:09:01.251Z,0
2017-05-28T00:10:01.241Z,0
2017-05-28T00:11:01.256Z,0
2017-05-28T00:12:01.237Z,0
2017-05-28T00:13:01.247Z,0
2017-05-28T00:14:01.241Z,0
2017-05-28T00:15:01.254Z,0
2017-05-28T00:16:01.249Z,0
2017-05-28T00:17:01.211Z,0
2017-05-28T00:18:01.210Z,0
2017-05-28T00:19:01.252Z,0
2017-05-28T00:20:01.276Z,0
2017-05-28T00:21:01.247Z,0
2017-05-28T00:22:01.261Z,0
2017-05-28T00:23:01.213Z,0
2017-05-28T00:24:01.255Z,0
2017-05-28T00:25:01.267Z,0
2017-05-28T00:26:01.304Z,0
2017-05-28T00:27:01.232Z,0
2017-05-28T00:28:01.234Z,0
2017-05-28T00:29:01.237Z,0
2017-05-28T00:30:01.235Z,0
2017-05-28T00:31:01.232Z,0
2017-05-28T00:32:01.340Z,0
2017-05-28T00:33:01.237Z,0
2017-05-28T00:34:01.240Z,0
2017-05-28T00:35:01.236Z,0
2017-05-28T00:36:01.230Z,0
2017-05-28T00:37:01.228Z,0
2017-05-28T00:38:01.229Z,0
2017-05-28T00:39:01.232Z,0
2017-05-28T00:40:01.230Z,0
2017-05-28T00:41:01.228Z,0
2017-05-28T00:42:01.229Z,0
2017-05-28T00:43:01.230Z,0
2017-05-28T00:44:01.226Z,0
2017-05-28T00:45:01.236Z,0
2017-05-28T00:46:01.266Z,0
2017-05-28T00:47:01.265Z,0
2017-05-28T00:48:01.271Z,0
2017-05-28T00:49:01.270Z,0
2017-05-28T00:50:01.273Z,0
2017-05-28T00:51:01.268Z,0
2017-05-28T00:52:01.258Z,0
2017-05-28T00:53:01.274Z,0
2017-05-28T00:54:01.272Z,0
2017-05-28T00:55:01.248Z,0
2017-05-28T00:56:01.271Z,0
2017-05-28T00:57:01.292Z,0
2017-05-28T00:58:01.260Z,0
2017-05-28T00:59:01.277Z,0
2017-05-28T01:00:01.271Z,0
2017-05-28T01:01:01.275Z,0
2017-05-28T01:02:01.274Z,0
2017-05-28T01:03:01.278Z,0
2017-05-28T01:04:01.273Z,0
2017-05-28T01:05:01.235Z,0
2017-05-28T01:06:01.326Z,0
2017-05-28T01:07:01.254Z,0
2017-05-28T01:08:01.327Z,0
2017-05-28T01:09:01.286Z,0
2017-05-28T01:10:01.296Z,0
2017-05-28T01:11:01.240Z,0
2017-05-28T01:12:01.287Z,0
2017-05-28T01:13:01.288Z,0
2017-05-28T01:14:01.289Z,0
2017-05-28T01:15:01.274Z,0
2017-05-28T01:16:01.258Z,0
2017-05-28T01:17:01.264Z,0
2017-05-28T01:18:01.292Z,0
2017-05-28T01:19:01.297Z,0
2017-05-28T01:20:01.300Z,0
2017-05-28T01:21:01.298Z,0
2017-05-28T01:22:01.277Z,0
2017-05-28T01:23:01.287Z,0
2017-05-28T01:24:01.295Z,0
2017-05-28T01:25:01.282Z,0
2017-05-28T01:26:01.312Z,0
2017-05-28T01:27:01.274Z,0
2017-05-28T01:28:01.281Z,0
2017-05-28T01:29:01.284Z,0
2017-05-28T01:30:01.295Z,0
2017-05-28T01:31:01.293Z,0
2017-05-28T01:32:01.298Z,0
2017-05-28T01:33:01.268Z,0
2017-05-28T01:34:01.394Z,0
2017-05-28T01:35:01.294Z,0
2017-05-28T01:36:01.290Z,0
2017-05-28T01:37:01.271Z,0
2017-05-28T01:38:01.271Z,0
2017-05-28T01:39:01.277Z,0
2017-05-28T01:40:01.272Z,0
2017-05-28T01:41:01.275Z,0
2017-05-28T01:42:01.277Z,0
2017-05-28T01:43:01.277Z,0
2017-05-28T01:44:01.280Z,0
2017-05-28T01:45:01.274Z,0
2017-05-28T01:46:01.274Z,0
2017-05-28T01:47:01.274Z,0
2017-05-28T01:48:01.280Z,0
2017-05-28T01:49:01.280Z,0
2017-05-28T01:50:01.281Z,0
2017-05-28T01:51:01.285Z,0
2017-05-28T01:52:01.279Z,0
2017-05-28T01:53:01.282Z,0
2017-05-28T01:54:01.286Z,0
2017-05-28T01:55:01.279Z,0
2017-05-28T01:56:01.278Z,0
2017-05-28T01:57:01.305Z,0
2017-05-28T01:58:01.309Z,0
2017-05-28T01:59:01.301Z,0
2017-05-28T02:00:01.302Z,0
2017-05-28T02:01:01.322Z,0
2017-05-28T02:02:01.308Z,0
2017-05-28T02:03:01.307Z,0
2017-05-28T02:04:01.305Z,0
2017-05-28T02:05:01.315Z,0
2017-05-28T02:06:01.326Z,0
2017-05-28T02:07:01.308Z,0
2017-05-28T02:08:01.313Z,0
2017-05-28T02:09:01.310Z,0
2017-05-28T02:10:01.286Z,0
2017-05-28T02:11:01.308Z,0
2017-05-28T02:12:01.312Z,0
2017-05-28T02:13:01.299Z,0
2017-05-28T02:14:01.310Z,0
2017-05-28T02:15:01.254Z,0
2017-05-28T02:16:01.316Z,0
2017-05-28T02:17:01.311Z,0
2017-05-28T02:18:01.313Z,0
2017-05-28T02:19:01.258Z,0
2017-05-28T02:20:01.332Z,0
2017-05-28T02:21:01.324Z,4
2017-05-28T02:22:01.336Z,4
2017-05-28T02:23:01.316Z,4
2017-05-28T02:24:01.280Z,4
2017-05-28T02:25:01.317Z,0
2017-05-28T02:26:01.332Z,0
2017-05-28T02:27:01.284Z,4
2017-05-28T02:28:01.289Z,4
2017-05-28T02:29:01.290Z,4
2017-05-28T02:30:01.288Z,4
2017-05-28T02:31:01.293Z,4
2017-05-28T02:32:01.286Z,8
2017-05-28T02:33:01.290Z,8
2017-05-28T02:34:01.292Z,8
2017-05-28T02:35:01.292Z,8
2017-05-28T02:36:01.296Z,12
2017-05-28T02:37:01.431Z,12
2017-05-28T02:38:01.329Z,16
2017-05-28T02:39:01.331Z,16
2017-05-28T02:40:01.332Z,20
2017-05-28T02:41:01.310Z,20
2017-05-28T02:42:01.318Z,28
2017-05-28T02:43:01.326Z,28
2017-05-28T02:44:01.331Z,32
2017-05-28T02:45:01.303Z,36
2017-05-28T02:46:01.331Z,44
2017-05-28T02:48:01.306Z,56
2017-05-28T02:49:01.310Z,64
2017-05-28T02:50:01.307Z,72
2017-05-28T02:51:01.309Z,84
2017-05-28T02:52:01.311Z,96
2017-05-28T02:53:01.309Z,108
2017-05-28T02:54:01.311Z,120
2017-05-28T02:55:01.310Z,140
2017-05-28T02:56:01.290Z,156
2017-05-28T02:57:01.299Z,176
2017-05-28T02:58:01.302Z,196
2017-05-28T02:59:01.301Z,216
2017-05-28T03:00:01.304Z,240
2017-05-28T03:01:01.304Z,268
2017-05-28T03:02:01.303Z,292
2017-05-28T03:03:01.308Z,324
2017-05-28T03:04:01.304Z,352
2017-05-28T03:05:01.307Z,384
2017-05-28T03:06:01.305Z,424
2017-05-28T03:07:01.345Z,460
2017-05-28T03:08:01.333Z,504
2017-05-28T03:09:01.341Z,540
2017-05-28T03:10:01.393Z,584
2017-05-28T03:11:01.344Z,628
2017-05-28T03:12:01.321Z,680
2017-05-28T03:13:01.321Z,724
2017-05-28T03:14:01.361Z,772
2017-05-28T03:15:01.341Z,824
2017-05-28T03:16:01.335Z,876
2017-05-28T03:17:01.362Z,928
2017-05-28T03:18:01.354Z,984
2017-05-28T03:19:01.349Z,1048
2017-05-28T03:20:01.348Z,1112
2017-05-28T03:21:01.343Z,1184
2017-05-28T03:22:01.359Z,1256
2017-05-28T03:23:01.312Z,1340
2017-05-28T03:24:01.353Z,1416
2017-05-28T03:25:01.351Z,1492
2017-05-28T03:26:01.430Z,1576
2017-05-28T03:27:01.469Z,1660
2017-05-28T03:28:01.333Z,1752
2017-05-28T03:29:01.368Z,1832
2017-05-28T03:30:01.358Z,1920
2017-05-28T03:31:01.358Z,2008
2017-05-28T03:32:01.354Z,2092
2017-05-28T03:33:01.349Z,2184
2017-05-28T03:34:01.293Z,2268
2017-05-28T03:35:01.309Z,2352
2017-05-28T03:36:01.319Z,2448
2017-05-28T03:37:01.318Z,2536
2017-05-28T03:38:01.320Z,2628
2017-05-28T03:39:01.319Z,2720
2017-05-28T03:40:01.323Z,2812
2017-05-28T03:41:01.320Z,2904
2017-05-28T03:42:01.323Z,2976
2017-05-28T03:43:01.318Z,3056
2017-05-28T03:44:01.320Z,3152
2017-05-28T03:45:01.320Z,3240
2017-05-28T03:46:01.323Z,3288
2017-05-28T03:47:01.377Z,3340
2017-05-28T03:48:01.297Z,3408
2017-05-28T03:49:01.361Z,3488
2017-05-28T03:50:01.362Z,3572
2017-05-28T03:51:01.362Z,3664
2017-05-28T03:52:01.364Z,3776
2017-05-28T03:53:01.376Z,3924
2017-05-28T03:54:01.354Z,4100
2017-05-28T03:55:01.365Z,4300
2017-05-28T03:56:01.359Z,4492
2017-05-28T03:57:01.329Z,4684
2017-05-28T03:58:01.335Z,4876
2017-05-28T03:59:01.332Z,5076
2017-05-28T04:00:01.335Z,5288
2017-05-28T04:01:01.330Z,5492
2017-05-28T04:02:01.330Z,5668
2017-05-28T04:03:01.333Z,5824
2017-05-28T04:04:01.335Z,5956
2017-05-28T04:05:01.335Z,6100
2017-05-28T04:06:01.335Z,6256
2017-05-28T04:07:01.369Z,6416
2017-05-28T04:08:01.367Z,6576
2017-05-28T04:09:01.389Z,6756
2017-05-28T04:10:01.309Z,6912
2017-05-28T04:11:01.370Z,7108
2017-05-28T04:12:01.375Z,7300
2017-05-28T04:13:01.361Z,7480
2017-05-28T04:14:01.345Z,7656
2017-05-28T04:15:01.371Z,7780
2017-05-28T04:16:01.382Z,7940
2017-05-28T04:17:01.352Z,8044
2017-05-28T04:18:01.355Z,8148
2017-05-28T04:19:01.360Z,8296
2017-05-28T04:20:01.351Z,8376
2017-05-28T04:21:01.352Z,8456
2017-05-28T04:22:01.356Z,5468
2017-05-28T04:23:01.358Z,5692
2017-05-28T04:24:01.354Z,8580
2017-05-28T04:25:01.371Z,8628
2017-05-28T04:26:01.359Z,8652
2017-05-28T04:27:01.358Z,8668
2017-05-28T04:28:01.357Z,8664
2017-05-28T04:29:01.358Z,8676
2017-05-28T04:30:01.360Z,8672
2017-05-28T04:31:01.363Z,8656
2017-05-28T04:32:01.361Z,8676
2017-05-28T04:33:01.364Z,8684
2017-05-28T04:34:01.360Z,8692
2017-05-28T04:35:01.362Z,8704
2017-05-28T04:36:01.359Z,8732
2017-05-28T04:37:01.378Z,8772
2017-05-28T04:38:01.391Z,8836
2017-05-28T04:39:01.359Z,8908
2017-05-28T04:40:01.355Z,8968
2017-05-28T04:41:01.354Z,9064
2017-05-28T04:42:01.397Z,9116
2017-05-28T04:43:01.400Z,9188
2017-05-28T04:44:01.388Z,9264
2017-05-28T04:45:01.379Z,9328
2017-05-28T04:46:01.388Z,9416
2017-05-28T04:47:01.356Z,9504
2017-05-28T04:48:01.354Z,9584
2017-05-28T04:49:01.357Z,9660
2017-05-28T04:50:01.358Z,9764
2017-05-28T04:51:01.360Z,9832
2017-05-28T04:52:01.386Z,9920
2017-05-28T04:53:01.463Z,9976
2017-05-28T04:54:01.361Z,10040
2017-05-28T04:55:01.388Z,10140
2017-05-28T04:56:01.361Z,10224
2017-05-28T04:57:01.361Z,10308
2017-05-28T04:58:01.363Z,10404
2017-05-28T04:59:01.365Z,10484
2017-05-28T05:00:01.367Z,10580
2017-05-28T05:01:01.361Z,10660
2017-05-28T05:02:01.362Z,10756
2017-05-28T05:03:01.368Z,10848
2017-05-28T05:05:01.368Z,11076
2017-05-28T05:06:01.369Z,11144
2017-05-28T05:07:01.368Z,11228
2017-05-28T05:08:01.345Z,11332
2017-05-28T05:09:01.343Z,11448
2017-05-28T05:10:01.396Z,11560
2017-05-28T05:11:01.407Z,11648
2017-05-28T05:12:01.406Z,11772
2017-05-28T05:13:01.405Z,11872
2017-05-28T05:14:01.413Z,11980
2017-05-28T05:15:01.406Z,12128
2017-05-28T05:16:01.402Z,12264
2017-05-28T05:17:01.410Z,12368
2017-05-28T05:18:01.393Z,12496
2017-05-28T05:19:01.383Z,12648
2017-05-28T05:20:01.383Z,12792
2017-05-28T05:21:01.384Z,12932
2017-05-28T05:22:01.383Z,13064
2017-05-28T05:23:01.382Z,13212
2017-05-28T05:24:01.488Z,13352
2017-05-28T05:25:01.385Z,13488
2017-05-28T05:26:01.390Z,13656
2017-05-28T05:27:01.390Z,13824
2017-05-28T05:28:01.380Z,14000
2017-05-28T05:29:01.377Z,14184
2017-05-28T05:30:01.378Z,14348
2017-05-28T05:31:01.380Z,14560
2017-05-28T05:32:01.476Z,14740
2017-05-28T05:33:01.380Z,14932
2017-05-28T05:34:01.384Z,15132
2017-05-28T05:35:01.380Z,15320
2017-05-28T05:36:01.381Z,15512
2017-05-28T05:37:01.382Z,15692
2017-05-28T05:38:01.394Z,15860
2017-05-28T05:39:01.470Z,16060
2017-05-28T05:40:01.400Z,16544
2017-05-28T05:41:01.398Z,28000
2017-05-28T05:42:01.399Z,40736
2017-05-28T05:43:01.397Z,42144
2017-05-28T05:44:01.398Z,42656
2017-05-28T05:45:01.481Z,41824
2017-05-28T05:46:01.400Z,41920
2017-05-28T05:47:01.405Z,43616
2017-05-28T05:48:01.326Z,43808
2017-05-28T05:49:01.367Z,44000
2017-05-28T05:50:01.362Z,43360
2017-05-28T05:51:01.335Z,44480
2017-05-28T05:52:01.332Z,45312
2017-05-28T05:53:01.362Z,45792
2017-05-28T05:54:01.416Z,48096
2017-05-28T05:55:01.380Z,51200
2017-05-28T05:56:01.375Z,51808
2017-05-28T05:57:01.375Z,52064
2017-05-28T05:58:01.435Z,52384
2017-05-28T05:59:01.435Z,52288
2017-05-28T06:00:01.432Z,52704
2017-05-28T06:01:01.435Z,53088
2017-05-28T06:02:01.429Z,54112
2017-05-28T06:03:01.427Z,55520
2017-05-28T06:04:01.451Z,56768
2017-05-28T06:05:01.433Z,57184
2017-05-28T06:06:01.429Z,54688
2017-05-28T06:07:01.422Z,47776
2017-05-28T06:08:01.454Z,48576
2017-05-28T06:09:01.438Z,52864
2017-05-28T06:10:01.423Z,51488
2017-05-28T06:11:01.438Z,56480
2017-05-28T06:12:01.403Z,60800
2017-05-28T06:13:01.436Z,63040
2017-05-28T06:14:01.433Z,61664
2017-05-28T06:15:01.440Z,61280
2017-05-28T06:16:01.434Z,57600
2017-05-28T06:17:01.415Z,56640
2017-05-28T06:18:01.443Z,57184
2017-05-28T06:19:01.426Z,60352
2017-05-28T06:20:01.495Z,62464
2017-05-28T06:21:01.459Z,65280
2017-05-28T06:22:01.408Z,67840
2017-05-28T06:23:01.418Z,67872
2017-05-28T06:24:01.447Z,65472
2017-05-28T06:25:01.431Z,70624
2017-05-28T06:26:01.444Z,73088
2017-05-28T06:27:01.430Z,73216
2017-05-28T06:28:01.382Z,73376
2017-05-28T06:29:01.457Z,74528
2017-05-28T06:30:01.446Z,74752
2017-05-28T06:31:01.446Z,73440
2017-05-28T06:32:01.441Z,71808
2017-05-28T06:33:01.447Z,71840
2017-05-28T06:34:01.460Z,70720
2017-05-28T06:35:01.440Z,72448
2017-05-28T06:36:01.437Z,71488
2017-05-28T06:37:01.437Z,61792
2017-05-28T06:38:01.410Z,63584
2017-05-28T06:39:01.415Z,71168
2017-05-28T06:40:01.411Z,65472
2017-05-28T06:41:01.409Z,67072
2017-05-28T06:42:01.414Z,68928
2017-05-28T06:43:01.417Z,73216
2017-05-28T06:44:01.414Z,72992
2017-05-28T06:45:01.412Z,61536
2017-05-28T06:46:01.415Z,56064
2017-05-28T06:47:01.416Z,48224
2017-05-28T06:48:01.454Z,51392
2017-05-28T06:49:01.457Z,58336
2017-05-28T06:50:01.455Z,64064
2017-05-28T06:51:01.394Z,57152
2017-05-28T06:52:01.459Z,58048
2017-05-28T06:53:01.478Z,55584
2017-05-28T06:54:01.455Z,53504
2017-05-28T06:55:01.473Z,54528
2017-05-28T06:56:01.459Z,56352
2017-05-28T06:57:01.451Z,48736
2017-05-28T06:58:01.451Z,42464
2017-05-28T06:59:01.461Z,39072
2017-05-28T07:00:01.459Z,37056
2017-05-28T07:01:01.461Z,38080
2017-05-28T07:02:01.462Z,39968
2017-05-28T07:03:01.465Z,42720
2017-05-28T07:04:01.467Z,43584
2017-05-28T07:05:01.482Z,48832
2017-05-28T07:06:01.459Z,56832
2017-05-28T07:07:01.485Z,60480
2017-05-28T07:08:01.469Z,58432
2017-05-28T07:09:01.481Z,54976
2017-05-28T07:10:01.460Z,52864
2017-05-28T07:11:01.463Z,53440
2017-05-28T07:12:01.474Z,39744
2017-05-28T07:13:01.474Z,35808
2017-05-28T07:14:01.439Z,33472
2017-05-28T07:15:01.409Z,36992
2017-05-28T07:16:01.518Z,39104
2017-05-28T07:17:01.487Z,46496
2017-05-28T07:18:01.446Z,50112
2017-05-28T07:19:01.440Z,59808
2017-05-28T07:20:01.437Z,63136
2017-05-28T07:21:01.443Z,64288
2017-05-28T07:22:01.439Z,65376
2017-05-28T07:23:01.445Z,68000
2017-05-28T07:24:01.438Z,71488
2017-05-28T07:25:01.439Z,83936
2017-05-28T07:26:01.448Z,91776
2017-05-28T07:27:01.441Z,96448
2017-05-28T07:28:01.457Z,99264
2017-05-28T07:29:01.453Z,99680
2017-05-28T07:30:01.453Z,99104
2017-05-28T07:31:01.452Z,97056
2017-05-28T07:32:01.451Z,94432
2017-05-28T07:33:01.457Z,93312
2017-05-28T07:34:01.454Z,95456
2017-05-28T07:35:01.457Z,98400
2017-05-28T07:36:01.457Z,101184
2017-05-28T07:37:01.457Z,105760
2017-05-28T07:38:01.379Z,109824
2017-05-28T07:39:01.382Z,112128
2017-05-28T07:40:01.390Z,112832
2017-05-28T07:41:01.376Z,106784
2017-05-28T07:42:01.379Z,96704
2017-05-28T07:43:01.370Z,90336
2017-05-28T07:44:01.393Z,81376
2017-05-28T07:45:01.378Z,73440
2017-05-28T07:46:01.490Z,70400
2017-05-28T07:47:01.396Z,63168
2017-05-28T07:48:01.379Z,62432
2017-05-28T07:49:01.462Z,72640
2017-05-28T07:50:01.466Z,75840
2017-05-28T07:51:01.464Z,78112
2017-05-28T07:52:01.467Z,78304
2017-05-28T07:53:01.467Z,69920
2017-05-28T07:54:01.466Z,69280
2017-05-28T07:55:01.468Z,69280
2017-05-28T07:56:01.466Z,68640
2017-05-28T07:57:01.469Z,72736
2017-05-28T07:58:01.469Z,68832
2017-05-28T07:59:01.492Z,71616
2017-05-28T08:00:01.602Z,72800
2017-05-28T08:01:01.499Z,83744
2017-05-28T08:02:01.502Z,88672
2017-05-28T08:03:01.444Z,92384
2017-05-28T08:04:01.466Z,95584
2017-05-28T08:05:01.701Z,99648
2017-05-28T08:06:01.599Z,100032
2017-05-28T08:07:01.500Z,99904
2017-05-28T08:08:01.500Z,99264
2017-05-28T08:09:01.494Z,99200
2017-05-28T08:10:01.499Z,100832
2017-05-28T08:11:01.560Z,102944
2017-05-28T08:12:01.502Z,104608
2017-05-28T08:13:01.441Z,104032
2017-05-28T08:14:01.503Z,101632
2017-05-28T08:15:01.501Z,99296
2017-05-28T08:16:01.494Z,97312
2017-05-28T08:17:01.488Z,97888
2017-05-28T08:18:01.487Z,100032
2017-05-28T08:19:01.481Z,104224
2017-05-28T08:20:01.478Z,109376
2017-05-28T08:21:01.480Z,114432
2017-05-28T08:22:01.481Z,118240
2017-05-28T08:23:01.480Z,120576
2017-05-28T08:24:01.480Z,119712
2017-05-28T08:25:01.484Z,116544
2017-05-28T08:26:01.482Z,112128
2017-05-28T08:27:01.588Z,110400
2017-05-28T08:28:01.480Z,108800
2017-05-28T08:29:01.485Z,108352
2017-05-28T08:30:01.482Z,110592
2017-05-28T08:31:01.482Z,95488
2017-05-28T08:32:01.561Z,108480
2017-05-28T08:33:01.486Z,119232
2017-05-28T08:34:01.510Z,125280
2017-05-28T08:35:01.490Z,127744
2017-05-28T08:36:01.489Z,125568
2017-05-28T08:37:01.488Z,127584
2017-05-28T08:38:01.489Z,129856
2017-05-28T08:39:01.490Z,129504
2017-05-28T08:40:01.592Z,128064
2017-05-28T08:41:01.488Z,124896
2017-05-28T08:42:01.493Z,122720
2017-05-28T08:43:01.493Z,116544
2017-05-28T08:44:01.495Z,108032
2017-05-28T08:45:01.493Z,115200
2017-05-28T08:46:01.494Z,113536
2017-05-28T08:47:01.497Z,128768
2017-05-28T08:48:01.508Z,132320
2017-05-28T08:49:01.520Z,136384
2017-05-28T08:50:01.531Z,135552
2017-05-28T08:51:01.523Z,133312
2017-05-28T08:52:01.524Z,132192
2017-05-28T08:53:01.524Z,133664
2017-05-28T08:54:01.526Z,136256
2017-05-28T08:55:01.523Z,137696
2017-05-28T08:56:01.456Z,136288
2017-05-28T08:57:01.525Z,129408
2017-05-28T08:58:01.523Z,114848
2017-05-28T08:59:01.499Z,102784
2017-05-28T09:00:01.502Z,86944
2017-05-28T09:01:01.499Z,82784
2017-05-28T09:02:01.502Z,82528
2017-05-28T09:03:01.501Z,85312
2017-05-28T09:04:01.500Z,94336
2017-05-28T09:05:01.502Z,105568
2017-05-28T09:06:01.533Z,116256
2017-05-28T09:07:01.503Z,120192
2017-05-28T09:08:01.503Z,120032
2017-05-28T09:09:01.519Z,123840
2017-05-28T09:10:01.470Z,125440
2017-05-28T09:11:01.521Z,126080
2017-05-28T09:12:01.541Z,123744
2017-05-28T09:13:01.531Z,120960
2017-05-28T09:14:01.526Z,118336
2017-05-28T09:15:01.547Z,110368
2017-05-28T09:16:01.533Z,96640
2017-05-28T09:17:01.542Z,88224
2017-05-28T09:18:01.545Z,100032
2017-05-28T09:19:01.510Z,110368
2017-05-28T09:20:01.508Z,118144
2017-05-28T09:21:01.511Z,125728
2017-05-28T09:22:01.515Z,131776
2017-05-28T09:23:01.513Z,136960
2017-05-28T09:24:01.520Z,141664
2017-05-28T09:25:01.511Z,144864
2017-05-28T09:26:01.515Z,144000
2017-05-28T09:27:01.523Z,139520
2017-05-28T09:28:01.514Z,137536
2017-05-28T09:29:01.531Z,113856
2017-05-28T09:30:01.640Z,91264
2017-05-28T09:31:01.536Z,64864
2017-05-28T09:32:01.545Z,80608
2017-05-28T09:33:01.537Z,108736
2017-05-28T09:34:01.538Z,137632
2017-05-28T09:35:01.556Z,146304
2017-05-28T09:36:01.541Z,146560
2017-05-28T09:37:01.479Z,145632
2017-05-28T09:38:01.551Z,139136
2017-05-28T09:39:01.544Z,134592
2017-05-28T09:40:01.484Z,131168
2017-05-28T09:41:01.560Z,136576
2017-05-28T09:42:01.557Z,133184
2017-05-28T09:43:01.536Z,130496
2017-05-28T09:44:01.551Z,100544
2017-05-28T09:45:01.555Z,123296
2017-05-28T09:46:01.548Z,123520
2017-05-28T09:47:01.547Z,120064
2017-05-28T09:48:01.563Z,113728
2017-05-28T09:49:01.509Z,107168
2017-05-28T09:50:01.513Z,106048
2017-05-28T09:51:01.518Z,114816
2017-05-28T09:52:01.546Z,120288
2017-05-28T09:53:01.517Z,122048
2017-05-28T09:54:01.615Z,126208
2017-05-28T09:55:01.516Z,134432
2017-05-28T09:56:01.516Z,130432
2017-05-28T09:57:01.519Z,124448
2017-05-28T09:58:01.516Z,126112
2017-05-28T09:59:01.524Z,125728
2017-05-28T10:00:01.520Z,126464
2017-05-28T10:01:01.521Z,129984
2017-05-28T10:02:01.527Z,124640
2017-05-28T10:03:01.526Z,115360
2017-05-28T10:04:01.524Z,112096
2017-05-28T10:05:01.526Z,108160
2017-05-28T10:06:01.529Z,123488
2017-05-28T10:07:01.533Z,128992
2017-05-28T10:08:01.527Z,134720
2017-05-28T10:09:01.626Z,130176
2017-05-28T10:10:01.565Z,120352
2017-05-28T10:11:01.587Z,137664
2017-05-28T10:12:01.472Z,109792
2017-05-28T10:13:01.456Z,79680
2017-05-28T10:14:01.549Z,84288
2017-05-28T10:15:01.514Z,75360
2017-05-28T10:16:01.513Z,137824
2017-05-28T10:17:01.519Z,131872
2017-05-28T10:18:01.474Z,120928
2017-05-28T10:19:01.542Z,137280
2017-05-28T10:20:01.545Z,133408
2017-05-28T10:21:01.546Z,128896
2017-05-28T10:22:01.543Z,131232
2017-05-28T10:23:01.548Z,123136
2017-05-28T10:24:01.544Z,129696
2017-05-28T10:25:01.548Z,141216
2017-05-28T10:26:01.548Z,142272
2017-05-28T10:27:01.577Z,145472
2017-05-28T10:28:01.546Z,142464
2017-05-28T10:29:01.576Z,140000
2017-05-28T10:30:01.572Z,138176
2017-05-28T10:31:01.561Z,139840
2017-05-28T10:32:01.585Z,139264
2017-05-28T10:33:01.573Z,124928
2017-05-28T10:34:01.582Z,122848
2017-05-28T10:35:01.626Z,140896
2017-05-28T10:36:01.559Z,144832
2017-05-28T10:37:01.576Z,140768
2017-05-28T10:38:01.578Z,134016
2017-05-28T10:39:01.544Z,120352
2017-05-28T10:40:01.539Z,117376
2017-05-28T10:41:01.538Z,114240
2017-05-28T10:42:01.541Z,127584
2017-05-28T10:43:01.544Z,133568
2017-05-28T10:44:01.541Z,139200
2017-05-28T10:45:01.543Z,129856
2017-05-28T10:46:01.544Z,152640
2017-05-28T10:47:01.646Z,129056
2017-05-28T10:48:01.550Z,100640
2017-05-28T10:49:01.524Z,125600
2017-05-28T10:50:01.518Z,99616
2017-05-28T10:51:01.471Z,88096
2017-05-28T10:52:01.492Z,85664
2017-05-28T10:53:01.495Z,87168
2017-05-28T10:54:01.469Z,77568
2017-05-28T10:55:01.471Z,84256
2017-05-28T10:56:01.591Z,66560
2017-05-28T10:57:01.570Z,61440
2017-05-28T10:58:01.524Z,57984
2017-05-28T10:59:01.546Z,55392
2017-05-28T11:00:01.566Z,53632
2017-05-28T11:01:01.571Z,51104
2017-05-28T11:02:01.564Z,49536
2017-05-28T11:03:01.561Z,49024
2017-05-28T11:04:01.568Z,49472
2017-05-28T11:05:01.564Z,50624
2017-05-28T11:06:01.565Z,53120
2017-05-28T11:07:01.565Z,57056
2017-05-28T11:08:01.640Z,61152
2017-05-28T11:09:01.572Z,68800
2017-05-28T11:10:01.601Z,70112
2017-05-28T11:11:01.588Z,70976
2017-05-28T11:12:01.582Z,69024
2017-05-28T11:13:01.597Z,65856
2017-05-28T11:14:01.604Z,65408
2017-05-28T11:15:01.595Z,60000
2017-05-28T11:16:01.603Z,56064
2017-05-28T11:17:01.583Z,53728
2017-05-28T11:18:01.601Z,52224
2017-05-28T11:19:01.597Z,52096
2017-05-28T11:20:01.571Z,52928
2017-05-28T11:21:01.589Z,54560
2017-05-28T11:22:01.592Z,56704
2017-05-28T11:23:01.717Z,58112
2017-05-28T11:24:01.598Z,57216
2017-05-28T11:25:01.601Z,57984
2017-05-28T11:26:01.602Z,51712
2017-05-28T11:27:01.607Z,47584
2017-05-28T11:28:01.619Z,44000
2017-05-28T11:29:01.605Z,41152
2017-05-28T11:30:01.602Z,38656
2017-05-28T11:31:01.597Z,36128
2017-05-28T11:32:01.612Z,33312
2017-05-28T11:33:01.613Z,30176
2017-05-28T11:34:01.694Z,27168
2017-05-28T11:35:01.619Z,24256
2017-05-28T11:36:01.594Z,21952
2017-05-28T11:37:01.578Z,20032
2017-05-28T11:38:01.611Z,18260
2017-05-28T11:39:01.676Z,17020
2017-05-28T11:40:01.593Z,15980
2017-05-28T11:41:01.704Z,15252
2017-05-28T11:42:01.579Z,15148
2017-05-28T11:43:01.579Z,15800
2017-05-28T11:44:01.577Z,17108
2017-05-28T11:45:01.583Z,18800
2017-05-28T11:46:01.584Z,20832
2017-05-28T11:47:01.586Z,22368
2017-05-28T11:48:01.577Z,23616
2017-05-28T11:49:01.685Z,24672
2017-05-28T11:50:01.540Z,25504
2017-05-28T11:51:01.724Z,26176
2017-05-28T11:52:01.620Z,27360
2017-05-28T11:53:01.665Z,29120
2017-05-28T11:54:01.620Z,30784
2017-05-28T11:55:01.617Z,31936
2017-05-28T11:56:01.619Z,32640
2017-05-28T11:57:01.619Z,32928
2017-05-28T11:58:01.631Z,32960
2017-05-28T11:59:01.604Z,33056
2017-05-28T12:00:01.592Z,33376
2017-05-28T12:01:01.589Z,33920
2017-05-28T12:02:01.629Z,34528
2017-05-28T12:03:01.624Z,34976
2017-05-28T12:04:01.616Z,35232
2017-05-28T12:05:01.624Z,35296
2017-05-28T12:06:01.623Z,35072
2017-05-28T12:07:01.621Z,34496
2017-05-28T12:08:01.595Z,33536
2017-05-28T12:09:01.614Z,32256
2017-05-28T12:10:01.603Z,31456
2017-05-28T12:11:01.607Z,31104
2017-05-28T12:12:01.603Z,30784
2017-05-28T12:13:01.610Z,30400
2017-05-28T12:14:01.608Z,29792
2017-05-28T12:15:01.607Z,29152
2017-05-28T12:16:01.607Z,29248
2017-05-28T12:17:01.609Z,29952
2017-05-28T12:18:01.610Z,30688
2017-05-28T12:19:01.611Z,31232
2017-05-28T12:20:01.580Z,31968
2017-05-28T12:21:01.536Z,33120
2017-05-28T12:22:01.592Z,34752
2017-05-28T12:23:01.524Z,36480
2017-05-28T12:24:01.521Z,37920
2017-05-28T12:25:01.588Z,38656
2017-05-28T12:26:01.617Z,38400
2017-05-28T12:27:01.547Z,37120
2017-05-28T12:28:01.524Z,34976
2017-05-28T12:29:01.530Z,32000
2017-05-28T12:30:01.615Z,28768
2017-05-28T12:31:01.613Z,26144
2017-05-28T12:32:01.614Z,24192
2017-05-28T12:33:01.617Z,22784
2017-05-28T12:34:01.617Z,21856
2017-05-28T12:35:01.618Z,21376
2017-05-28T12:36:01.612Z,21024
2017-05-28T12:37:01.617Z,20672
2017-05-28T12:38:01.614Z,19472
2017-05-28T12:39:01.617Z,18876
2017-05-28T12:40:01.617Z,18300
2017-05-28T12:41:01.616Z,17528
2017-05-28T12:42:01.616Z,17108
2017-05-28T12:43:01.699Z,16928
2017-05-28T12:44:01.622Z,16584
2017-05-28T12:45:01.618Z,17896
2017-05-28T12:46:01.622Z,16680
2017-05-28T12:47:01.619Z,17460
2017-05-28T12:48:01.620Z,18512
2017-05-28T12:49:01.623Z,20384
2017-05-28T12:50:01.648Z,22144
2017-05-28T12:51:01.633Z,23744
2017-05-28T12:52:01.661Z,26016
2017-05-28T12:53:01.644Z,28000
2017-05-28T12:54:01.654Z,29792
2017-05-28T12:55:01.651Z,30880
2017-05-28T12:56:01.649Z,31712
2017-05-28T12:57:01.657Z,32192
2017-05-28T12:58:01.585Z,32512
2017-05-28T12:59:01.657Z,32512
2017-05-28T13:00:01.654Z,31968
2017-05-28T13:01:01.659Z,31584
2017-05-28T13:02:01.660Z,31264
2017-05-28T13:03:01.656Z,30720
2017-05-28T13:04:01.632Z,30048
2017-05-28T13:05:01.643Z,29312
2017-05-28T13:06:01.640Z,28832
2017-05-28T13:07:01.621Z,28608
2017-05-28T13:08:01.655Z,28352
2017-05-28T13:09:01.692Z,28320
2017-05-28T13:10:01.658Z,28160
2017-05-28T13:11:01.651Z,27840
2017-05-28T13:12:01.663Z,27296
2017-05-28T13:13:01.706Z,26144
2017-05-28T13:14:01.662Z,25536
2017-05-28T13:15:01.663Z,25184
2017-05-28T13:16:01.674Z,25056